OERR

Details ICAO OERR (RAE)
Name ARAR
Region Saudi Arabia
Timezone Asia/Riyadh (UTC+3.0)
Plans Departing 13
Arriving 13
Stats Elevation 1,813 ft / 553 m (AMSL)
Location 30.906644° 41.138235°
Runways 1
Magnetic Variation 4.441° E
Sunrise 2018-05-25 02:16:38 UTC / 2018-05-25 05:16:38 Local
Sunset 2018-05-25 16:10:59 UTC / 2018-05-25 19:10:59 Local
Advertisement - Login to hide

Runways

ID Width Length Bearing (true) Bearing (mag) Surface Threshold Offset Overrun Length
10 148 ft / 45 m 9,993 ft / 3,046 m 104.83° 100.39° Asphalt 0 ft / 0 m 210 ft / 64 m
28 148 ft / 45 m 9,993 ft / 3,046 m 284.84° 280.40° Asphalt 0 ft / 0 m 210 ft / 64 m

Map

Weather


0- 5 10 15 20 25 30 35+ Temperature / ° C

Clouds and Precipitation
Forecast for 2018-05-25 18:00 UTC. Updated 2 hours ago

Ground ~20,000 ft ~40,000 ft Winds

METAR

OERR 251900Z 27006KT CAVOK 30/11 Q1009 NOSIG

TAF

TAF OERR 251100Z 2512/2618 27014KT CAVOK BECMG 2520/2522 VRB03KT

Frequencies

Unicom 122.80 MHz CTAF
Warning: Do not use this data for real-world aviation or navigation. No guarantee of current accuracy is given.